Wilson Norfolk — 9HA2466 — position and weather

sailwx.info

Track history (hours):
 
Tides and Currents Weather Stations Pressure Air Temp Water Temp Dewpoint Dewpoint Depression Visibility Wind Speed Wind Dir Waves Ship Positions

Wilson Norfolk

Last reported at 2016-May-25 20:28 UTC. Time now 2016-May-31 02:01 UTC.
Position N 66°42' E 011°45'.

Length 123 m; draft 5.2 m.

Type: Ship. MMSI: 248678000.

Date/timePositionNaut miles runAvg speedWind from/ knotsBaromVisibWave heightAir tempDewpointWater temp
2016-May-25 20:28N 66°42' E 011°45'1112.4
2016-May-25 19:33N 66°30' E 011°48'1111.3
2016-May-25 18:33N 66°20' E 012°02'1312.6
2016-May-25 17:33N 66°15' E 012°30'  
2016-May-22 18:33N 66°13' E 012°42'10 9.9
2016-May-22 17:33N 66°17' E 012°20'1211.2
2016-May-22 16:30N 66°15' E 011°51'  
2016-May-19 08:16N 52°27' E 002°37'48 9.4
2016-May-19 03:09N 51°40' E 002°26'1011.7
2016-May-19 02:20N 51°32' E 002°16'912.0
2016-May-19 01:33N 51°24' E 002°10'1212.1
2016-May-19 00:33N 51°13' E 002°01'1111.3
2016-May-18 23:33N 51°04' E 001°49'9 8.8
2016-May-18 22:33N 51°03' E 002°03'11 9.5
2016-May-18 21:21N 51°04' E 002°21'0 0.6
2016-May-18 20:34N 51°03' E 002°20'2 1.5
2016-May-18 19:08N 51°03' E 002°17'0 0.0
2016-May-18 18:32N 51°03' E 002°17'0 0.0
2016-May-18 17:29N 51°03' E 002°17'0 0.0
2016-May-18 16:05N 51°03' E 002°17'0 0.0
2016-May-18 15:23N 51°03' E 002°17'0 0.0
2016-May-18 14:26N 51°03' E 002°17'0 0.0
2016-May-18 13:32N 51°03' E 002°17'0 0.0
2016-May-18 12:32N 51°03' E 002°17'0 0.0
2016-May-18 11:29N 51°03' E 002°17'0 0.0
2016-May-18 10:33N 51°03' E 002°17'0 0.0
2016-May-18 09:29N 51°03' E 002°17'0 0.0
2016-May-18 08:11N 51°03' E 002°17'0 0.0
2016-May-18 07:32N 51°03' E 002°17'0 0.0
2016-May-18 06:20N 51°03' E 002°17'0 0.0
2016-May-18 05:32N 51°03' E 002°17'0 0.0
2016-May-18 04:29N 51°03' E 002°17'0 0.0
2016-May-18 03:29N 51°03' E 002°17'0 0.0
2016-May-18 02:29N 51°03' E 002°17'0 0.0
2016-May-18 01:32N 51°03' E 002°17'0 0.0
2016-May-18 00:29N 51°03' E 002°17'0 0.0
2016-May-17 23:29N 51°03' E 002°17'0 0.0
2016-May-17 22:32N 51°03' E 002°17'0 0.0
2016-May-17 21:32N 51°03' E 002°17'0 0.0
2016-May-17 20:32N 51°03' E 002°17'0 0.0
2016-May-17 19:32N 51°03' E 002°17'0 0.0
2016-May-17 18:32N 51°03' E 002°17'0 0.0
2016-May-17 17:32N 51°03' E 002°17'0 0.0
2016-May-17 16:32N 51°03' E 002°17'0 0.0
2016-May-17 15:32N 51°03' E 002°17'0 0.0
2016-May-17 14:32N 51°03' E 002°17'0 0.0
2016-May-17 13:32N 51°03' E 002°17'0 0.0
2016-May-17 12:32N 51°03' E 002°17'0 0.0
2016-May-17 11:32N 51°03' E 002°17'0 0.0
2016-May-17 10:29N 51°03' E 002°17'0 0.0
2016-May-17 09:32N 51°03' E 002°17'0 0.0
2016-May-17 08:32N 51°03' E 002°17'0 0.0
2016-May-17 07:32N 51°03' E 002°17'0 0.0
2016-May-17 06:17N 51°03' E 002°17'0 0.0
2016-May-17 05:26N 51°03' E 002°17'0 0.0
2016-May-17 04:32N 51°03' E 002°17'0 0.0
2016-May-17 03:33N 51°03' E 002°17'0 0.0
2016-May-17 02:29N 51°03' E 002°17'0 0.0
2016-May-17 01:32N 51°03' E 002°17'0 0.0
2016-May-17 00:26N 51°03' E 002°17'0 0.0
2016-May-16 23:32N 51°03' E 002°17'0 0.0
2016-May-16 22:29N 51°03' E 002°17'0 0.0
2016-May-16 21:32N 51°03' E 002°17'0 0.0
2016-May-16 20:23N 51°03' E 002°17'0 0.0
2016-May-16 19:23N 51°03' E 002°17'0 0.0
2016-May-16 18:29N 51°03' E 002°17'0 0.0
2016-May-16 17:32N 51°03' E 002°17'0 0.0
2016-May-16 16:32N 51°03' E 002°17'2 2.1
2016-May-16 15:33N 51°03' E 002°21'4 4.4
2016-May-16 14:33N 51°04' E 002°14'10 9.9
2016-May-16 13:34N 51°02' E 001°58'5 4.7
2016-May-16 12:33N 51°04' E 001°51'1 0.8
2016-May-16 11:28N 51°05' E 001°52'0 0.1
2016-May-16 10:31N 51°05' E 001°52'0 0.0
2016-May-16 09:31N 51°05' E 001°52'0 0.0
2016-May-16 08:31N 51°05' E 001°52'0 0.0
2016-May-16 07:31N 51°05' E 001°52'0 0.0
2016-May-16 06:31N 51°05' E 001°52'0 0.2
2016-May-16 05:31N 51°05' E 001°51'0 0.0
2016-May-16 04:31N 51°05' E 001°51'0 0.0
2016-May-16 03:31N 51°05' E 001°51'0 0.0
2016-May-16 02:31N 51°05' E 001°51'0 0.0
2016-May-16 01:25N 51°05' E 001°51'0 0.0
2016-May-16 00:31N 51°05' E 001°51'0 0.0
2016-May-15 23:31N 51°05' E 001°51'0 0.1
2016-May-15 22:31N 51°05' E 001°52'0 0.0
2016-May-15 21:31N 51°05' E 001°52'0 0.1
2016-May-15 20:31N 51°05' E 001°52'  
Track history (hours):
 
Tides and Currents Weather Stations Pressure Air Temp Water Temp Dewpoint Dewpoint Depression Visibility Wind Speed Wind Dir Waves Ship Positions

Wilson Norfolk

Last reported at 2016-May-25 20:28 UTC. Time now 2016-May-31 02:01 UTC.
Position N 66°42' E 011°45'.

Length 123 m; draft 5.2 m.

Type: Ship. MMSI: 248678000.

Date/timePositionNaut miles runAvg speedWind from/ knotsBaromVisibWave heightAir tempDewpointWater temp
2016-May-25 20:28N 66°42' E 011°45'1112.4
2016-May-25 19:33N 66°30' E 011°48'1111.3
2016-May-25 18:33N 66°20' E 012°02'1312.6
2016-May-25 17:33N 66°15' E 012°30'  
2016-May-22 18:33N 66°13' E 012°42'10 9.9
2016-May-22 17:33N 66°17' E 012°20'1211.2
2016-May-22 16:30N 66°15' E 011°51'  
2016-May-19 08:16N 52°27' E 002°37'48 9.4
2016-May-19 03:09N 51°40' E 002°26'1011.7
2016-May-19 02:20N 51°32' E 002°16'912.0
2016-May-19 01:33N 51°24' E 002°10'1212.1
2016-May-19 00:33N 51°13' E 002°01'1111.3
2016-May-18 23:33N 51°04' E 001°49'9 8.8
2016-May-18 22:33N 51°03' E 002°03'11 9.5
2016-May-18 21:21N 51°04' E 002°21'0 0.6
2016-May-18 20:34N 51°03' E 002°20'2 1.5
2016-May-18 19:08N 51°03' E 002°17'0 0.0
2016-May-18 18:32N 51°03' E 002°17'0 0.0
2016-May-18 17:29N 51°03' E 002°17'0 0.0
2016-May-18 16:05N 51°03' E 002°17'0 0.0
2016-May-18 15:23N 51°03' E 002°17'0 0.0
2016-May-18 14:26N 51°03' E 002°17'0 0.0
2016-May-18 13:32N 51°03' E 002°17'0 0.0
2016-May-18 12:32N 51°03' E 002°17'0 0.0
2016-May-18 11:29N 51°03' E 002°17'0 0.0
2016-May-18 10:33N 51°03' E 002°17'0 0.0
2016-May-18 09:29N 51°03' E 002°17'0 0.0
2016-May-18 08:11N 51°03' E 002°17'0 0.0
2016-May-18 07:32N 51°03' E 002°17'0 0.0
2016-May-18 06:20N 51°03' E 002°17'0 0.0
2016-May-18 05:32N 51°03' E 002°17'0 0.0
2016-May-18 04:29N 51°03' E 002°17'0 0.0
2016-May-18 03:29N 51°03' E 002°17'0 0.0
2016-May-18 02:29N 51°03' E 002°17'0 0.0
2016-May-18 01:32N 51°03' E 002°17'0 0.0
2016-May-18 00:29N 51°03' E 002°17'0 0.0
2016-May-17 23:29N 51°03' E 002°17'0 0.0
2016-May-17 22:32N 51°03' E 002°17'0 0.0
2016-May-17 21:32N 51°03' E 002°17'0 0.0
2016-May-17 20:32N 51°03' E 002°17'0 0.0
2016-May-17 19:32N 51°03' E 002°17'0 0.0
2016-May-17 18:32N 51°03' E 002°17'0 0.0
2016-May-17 17:32N 51°03' E 002°17'0 0.0
2016-May-17 16:32N 51°03' E 002°17'0 0.0
2016-May-17 15:32N 51°03' E 002°17'0 0.0
2016-May-17 14:32N 51°03' E 002°17'0 0.0
2016-May-17 13:32N 51°03' E 002°17'0 0.0
2016-May-17 12:32N 51°03' E 002°17'0 0.0
2016-May-17 11:32N 51°03' E 002°17'0 0.0
2016-May-17 10:29N 51°03' E 002°17'0 0.0
2016-May-17 09:32N 51°03' E 002°17'0 0.0
2016-May-17 08:32N 51°03' E 002°17'0 0.0
2016-May-17 07:32N 51°03' E 002°17'0 0.0
2016-May-17 06:17N 51°03' E 002°17'0 0.0
2016-May-17 05:26N 51°03' E 002°17'0 0.0
2016-May-17 04:32N 51°03' E 002°17'0 0.0
2016-May-17 03:33N 51°03' E 002°17'0 0.0
2016-May-17 02:29N 51°03' E 002°17'0 0.0
2016-May-17 01:32N 51°03' E 002°17'0 0.0
2016-May-17 00:26N 51°03' E 002°17'0 0.0
2016-May-16 23:32N 51°03' E 002°17'0 0.0
2016-May-16 22:29N 51°03' E 002°17'0 0.0
2016-May-16 21:32N 51°03' E 002°17'0 0.0
2016-May-16 20:23N 51°03' E 002°17'0 0.0
2016-May-16 19:23N 51°03' E 002°17'0 0.0
2016-May-16 18:29N 51°03' E 002°17'0 0.0
2016-May-16 17:32N 51°03' E 002°17'0 0.0
2016-May-16 16:32N 51°03' E 002°17'2 2.1
2016-May-16 15:33N 51°03' E 002°21'4 4.4
2016-May-16 14:33N 51°04' E 002°14'10 9.9
2016-May-16 13:34N 51°02' E 001°58'5 4.7
2016-May-16 12:33N 51°04' E 001°51'1 0.8
2016-May-16 11:28N 51°05' E 001°52'0 0.1
2016-May-16 10:31N 51°05' E 001°52'0 0.0
2016-May-16 09:31N 51°05' E 001°52'0 0.0
2016-May-16 08:31N 51°05' E 001°52'0 0.0
2016-May-16 07:31N 51°05' E 001°52'0 0.0
2016-May-16 06:31N 51°05' E 001°52'0 0.2
2016-May-16 05:31N 51°05' E 001°51'0 0.0
2016-May-16 04:31N 51°05' E 001°51'0 0.0
2016-May-16 03:31N 51°05' E 001°51'0 0.0
2016-May-16 02:31N 51°05' E 001°51'0 0.0
2016-May-16 01:25N 51°05' E 001°51'0 0.0
2016-May-16 00:31N 51°05' E 001°51'0 0.0
2016-May-15 23:31N 51°05' E 001°51'0 0.1
2016-May-15 22:31N 51°05' E 001°52'0 0.0
2016-May-15 21:31N 51°05' E 001°52'0 0.1
2016-May-15 20:31N 51°05' E 001°52'  

Dump ship's entire track history